sensor_id;sensor_type;location;lat;lon;timestamp;P1;durP1;ratioP1;P2;durP2;ratioP2
2570;SDS011;1295;51.130;6.732;2024-01-15T00:01:25;37.97;;;20.42;;
2570;SDS011;1295;51.130;6.732;2024-01-15T00:03:50;36.87;;;21.83;;
2570;SDS011;1295;51.130;6.732;2024-01-15T00:06:16;34.63;;;19.10;;
2570;SDS011;1295;51.130;6.732;2024-01-15T00:08:52;42.77;;;20.07;;
2570;SDS011;1295;51.130;6.732;2024-01-15T00:11:18;40.30;;;20.77;;
2570;SDS011;1295;51.130;6.732;2024-01-15T00:13:43;50.57;;;22.93;;
2570;SDS011;1295;51.130;6.732;2024-01-15T00:16:09;47.33;;;22.30;;
2570;SDS011;1295;51.130;6.732;2024-01-15T00:18:35;49.57;;;23.30;;
2570;SDS011;1295;51.130;6.732;2024-01-15T00:21:07;52.62;;;29.73;;
2570;SDS011;1295;51.130;6.732;2024-01-15T00:23:33;47.97;;;21.50;;
2570;SDS011;1295;51.130;6.732;2024-01-15T00:25:59;44.77;;;21.67;;
2570;SDS011;1295;51.130;6.732;2024-01-15T00:28:25;46.08;;;19.70;;
2570;SDS011;1295;51.130;6.732;2024-01-15T00:30:50;43.63;;;23.80;;
2570;SDS011;1295;51.130;6.732;2024-01-15T00:33:17;36.30;;;18.53;;
2570;SDS011;1295;51.130;6.732;2024-01-15T00:35:52;46.73;;;23.27;;
2570;SDS011;1295;51.130;6.732;2024-01-15T00:38:18;38.50;;;18.90;;
2570;SDS011;1295;51.130;6.732;2024-01-15T00:40:44;44.50;;;17.10;;
2570;SDS011;1295;51.130;6.732;2024-01-15T00:43:09;52.13;;;22.50;;
2570;SDS011;1295;51.130;6.732;2024-01-15T00:45:35;37.90;;;19.40;;
2570;SDS011;1295;51.130;6.732;2024-01-15T00:48:00;47.07;;;23.47;;
2570;SDS011;1295;51.130;6.732;2024-01-15T00:50:27;45.40;;;23.73;;
2570;SDS011;1295;51.130;6.732;2024-01-15T00:52:53;45.05;;;23.00;;
2570;SDS011;1295;51.130;6.732;2024-01-15T00:55:20;52.00;;;27.00;;
2570;SDS011;1295;51.130;6.732;2024-01-15T00:57:45;49.90;;;24.77;;
2570;SDS011;1295;51.130;6.732;2024-01-15T01:00:11;48.57;;;27.10;;
2570;SDS011;1295;51.130;6.732;2024-01-15T01:02:38;38.90;;;23.07;;
2570;SDS011;1295;51.130;6.732;2024-01-15T01:05:04;43.97;;;22.30;;
2570;SDS011;1295;51.130;6.732;2024-01-15T01:07:29;36.75;;;21.35;;
2570;SDS011;1295;51.130;6.732;2024-01-15T01:09:55;37.17;;;20.13;;
2570;SDS011;1295;51.130;6.732;2024-01-15T01:12:21;43.10;;;23.30;;
2570;SDS011;1295;51.130;6.732;2024-01-15T01:14:46;47.33;;;23.50;;
2570;SDS011;1295;51.130;6.732;2024-01-15T01:17:12;46.10;;;24.20;;
2570;SDS011;1295;51.130;6.732;2024-01-15T01:19:38;48.83;;;21.50;;
2570;SDS011;1295;51.130;6.732;2024-01-15T01:22:03;44.00;;;24.07;;
2570;SDS011;1295;51.130;6.732;2024-01-15T01:24:29;39.80;;;20.93;;
2570;SDS011;1295;51.130;6.732;2024-01-15T01:26:55;47.93;;;23.90;;
2570;SDS011;1295;51.130;6.732;2024-01-15T01:29:20;38.83;;;21.37;;
2570;SDS011;1295;51.130;6.732;2024-01-15T01:31:46;38.57;;;21.40;;
2570;SDS011;1295;51.130;6.732;2024-01-15T01:34:13;40.97;;;21.40;;
2570;SDS011;1295;51.130;6.732;2024-01-15T01:36:39;40.35;;;23.62;;
2570;SDS011;1295;51.130;6.732;2024-01-15T01:39:04;47.00;;;22.93;;
2570;SDS011;1295;51.130;6.732;2024-01-15T01:41:30;34.47;;;21.37;;
2570;SDS011;1295;51.130;6.732;2024-01-15T01:43:55;36.00;;;21.73;;
2570;SDS011;1295;51.130;6.732;2024-01-15T01:46:21;45.93;;;16.80;;
2570;SDS011;1295;51.130;6.732;2024-01-15T01:48:47;39.60;;;23.97;;
2570;SDS011;1295;51.130;6.732;2024-01-15T01:51:13;42.38;;;23.73;;
2570;SDS011;1295;51.130;6.732;2024-01-15T01:53:39;36.80;;;20.23;;
2570;SDS011;1295;51.130;6.732;2024-01-15T01:56:04;42.37;;;20.80;;
2570;SDS011;1295;51.130;6.732;2024-01-15T01:58:30;56.13;;;25.27;;
2570;SDS011;1295;51.130;6.732;2024-01-15T02:00:56;41.20;;;21.10;;
2570;SDS011;1295;51.130;6.732;2024-01-15T02:03:21;32.87;;;20.20;;
2570;SDS011;1295;51.130;6.732;2024-01-15T02:05:47;40.80;;;21.60;;
2570;SDS011;1295;51.130;6.732;2024-01-15T02:08:14;34.40;;;18.33;;
2570;SDS011;1295;51.130;6.732;2024-01-15T02:10:39;33.53;;;20.10;;
2570;SDS011;1295;51.130;6.732;2024-01-15T02:13:05;26.50;;;18.90;;
2570;SDS011;1295;51.130;6.732;2024-01-15T02:15:31;37.70;;;17.70;;
2570;SDS011;1295;51.130;6.732;2024-01-15T02:17:57;40.73;;;20.90;;
2570;SDS011;1295;51.130;6.732;2024-01-15T02:20:22;40.27;;;18.90;;
2570;SDS011;1295;51.130;6.732;2024-01-15T02:22:48;47.67;;;21.77;;
2570;SDS011;1295;51.130;6.732;2024-01-15T02:25:14;27.10;;;15.00;;
2570;SDS011;1295;51.130;6.732;2024-01-15T02:27:39;32.90;;;20.10;;
2570;SDS011;1295;51.130;6.732;2024-01-15T02:30:05;43.27;;;20.63;;
2570;SDS011;1295;51.130;6.732;2024-01-15T02:32:32;38.97;;;21.42;;
2570;SDS011;1295;51.130;6.732;2024-01-15T02:34:58;27.43;;;13.47;;
2570;SDS011;1295;51.130;6.732;2024-01-15T02:37:23;41.83;;;22.37;;
2570;SDS011;1295;51.130;6.732;2024-01-15T02:39:49;36.50;;;22.20;;
2570;SDS011;1295;51.130;6.732;2024-01-15T02:42:14;47.93;;;24.07;;
2570;SDS011;1295;51.130;6.732;2024-01-15T02:44:40;41.47;;;19.90;;
2570;SDS011;1295;51.130;6.732;2024-01-15T02:47:06;42.70;;;22.70;;
2570;SDS011;1295;51.130;6.732;2024-01-15T02:49:31;36.73;;;19.17;;
2570;SDS011;1295;51.130;6.732;2024-01-15T02:51:58;37.10;;;19.00;;
2570;SDS011;1295;51.130;6.732;2024-01-15T02:54:23;31.02;;;21.20;;
2570;SDS011;1295;51.130;6.732;2024-01-15T02:56:49;34.40;;;20.10;;
2570;SDS011;1295;51.130;6.732;2024-01-15T02:59:14;31.70;;;17.30;;
2570;SDS011;1295;51.130;6.732;2024-01-15T03:01:40;25.27;;;14.17;;
2570;SDS011;1295;51.130;6.732;2024-01-15T03:04:06;27.77;;;19.37;;
2570;SDS011;1295;51.130;6.732;2024-01-15T03:06:31;27.03;;;15.40;;
2570;SDS011;1295;51.130;6.732;2024-01-15T03:08:57;25.30;;;16.20;;
2570;SDS011;1295;51.130;6.732;2024-01-15T03:11:23;41.97;;;19.80;;
2570;SDS011;1295;51.130;6.732;2024-01-15T03:13:49;26.75;;;18.05;;
2570;SDS011;1295;51.130;6.732;2024-01-15T03:16:14;28.30;;;18.50;;
2570;SDS011;1295;51.130;6.732;2024-01-15T03:18:40;29.87;;;15.50;;
2570;SDS011;1295;51.130;6.732;2024-01-15T03:21:06;34.13;;;20.13;;
2570;SDS011;1295;51.130;6.732;2024-01-15T03:23:31;35.47;;;19.70;;
2570;SDS011;1295;51.130;6.732;2024-01-15T03:25:57;27.70;;;14.60;;
2570;SDS011;1295;51.130;6.732;2024-01-15T03:28:23;29.77;;;17.73;;
2570;SDS011;1295;51.130;6.732;2024-01-15T03:30:49;29.50;;;16.47;;
2570;SDS011;1295;51.130;6.732;2024-01-15T03:33:15;25.75;;;16.77;;
2570;SDS011;1295;51.130;6.732;2024-01-15T03:35:40;34.50;;;18.63;;
2570;SDS011;1295;51.130;6.732;2024-01-15T03:38:06;33.67;;;20.10;;
2570;SDS011;1295;51.130;6.732;2024-01-15T03:40:31;25.07;;;15.93;;
2570;SDS011;1295;51.130;6.732;2024-01-15T03:42:57;34.37;;;17.63;;
2570;SDS011;1295;51.130;6.732;2024-01-15T03:45:23;39.30;;;20.90;;
2570;SDS011;1295;51.130;6.732;2024-01-15T03:47:48;35.43;;;20.70;;
2570;SDS011;1295;51.130;6.732;2024-01-15T03:50:14;28.37;;;18.53;;
2570;SDS011;1295;51.130;6.732;2024-01-15T03:52:40;35.23;;;21.73;;
2570;SDS011;1295;51.130;6.732;2024-01-15T03:55:06;37.45;;;21.25;;
2570;SDS011;1295;51.130;6.732;2024-01-15T03:57:32;33.70;;;20.05;;
2570;SDS011;1295;51.130;6.732;2024-01-15T03:59:58;27.33;;;19.77;;
2570;SDS011;1295;51.130;6.732;2024-01-15T04:02:23;32.43;;;17.97;;
2570;SDS011;1295;51.130;6.732;2024-01-15T04:04:49;29.43;;;17.80;;
2570;SDS011;1295;51.130;6.732;2024-01-15T04:07:15;30.43;;;16.27;;
2570;SDS011;1295;51.130;6.732;2024-01-15T04:09:40;30.23;;;14.53;;
2570;SDS011;1295;51.130;6.732;2024-01-15T04:12:06;22.53;;;16.10;;
2570;SDS011;1295;51.130;6.732;2024-01-15T04:14:38;25.88;;;14.25;;
2570;SDS011;1295;51.130;6.732;2024-01-15T04:17:04;29.20;;;18.20;;
2570;SDS011;1295;51.130;6.732;2024-01-15T04:19:30;12.27;;;8.23;;
2570;SDS011;1295;51.130;6.732;2024-01-15T04:21:55;24.27;;;14.37;;
2570;SDS011;1295;51.130;6.732;2024-01-15T04:24:21;24.90;;;15.43;;
2570;SDS011;1295;51.130;6.732;2024-01-15T04:26:47;25.33;;;16.90;;
2570;SDS011;1295;51.130;6.732;2024-01-15T04:29:23;27.10;;;12.70;;
2570;SDS011;1295;51.130;6.732;2024-01-15T04:31:49;25.30;;;18.83;;
2570;SDS011;1295;51.130;6.732;2024-01-15T04:34:15;22.47;;;14.73;;
2570;SDS011;1295;51.130;6.732;2024-01-15T04:36:40;32.17;;;16.40;;
2570;SDS011;1295;51.130;6.732;2024-01-15T04:39:07;29.47;;;11.90;;
2570;SDS011;1295;51.130;6.732;2024-01-15T04:41:33;24.80;;;13.80;;
2570;SDS011;1295;51.130;6.732;2024-01-15T04:43:58;21.30;;;14.90;;
2570;SDS011;1295;51.130;6.732;2024-01-15T04:46:24;24.43;;;10.70;;
2570;SDS011;1295;51.130;6.732;2024-01-15T04:48:50;24.13;;;13.57;;
2570;SDS011;1295;51.130;6.732;2024-01-15T04:51:16;26.50;;;13.77;;
2570;SDS011;1295;51.130;6.732;2024-01-15T04:53:42;23.27;;;13.77;;
2570;SDS011;1295;51.130;6.732;2024-01-15T04:56:08;18.30;;;12.17;;
2570;SDS011;1295;51.130;6.732;2024-01-15T04:58:33;23.80;;;14.73;;
2570;SDS011;1295;51.130;6.732;2024-01-15T05:01:00;12.90;;;10.80;;
2570;SDS011;1295;51.130;6.732;2024-01-15T05:03:25;19.55;;;12.98;;
2570;SDS011;1295;51.130;6.732;2024-01-15T05:05:51;20.20;;;13.17;;
2570;SDS011;1295;51.130;6.732;2024-01-15T05:08:16;22.73;;;13.67;;
2570;SDS011;1295;51.130;6.732;2024-01-15T05:10:42;15.97;;;9.33;;
2570;SDS011;1295;51.130;6.732;2024-01-15T05:13:08;7.63;;;5.93;;
2570;SDS011;1295;51.130;6.732;2024-01-15T05:15:34;19.80;;;12.60;;
2570;SDS011;1295;51.130;6.732;2024-01-15T05:18:00;17.40;;;12.83;;
2570;SDS011;1295;51.130;6.732;2024-01-15T05:20:25;12.17;;;8.63;;
2570;SDS011;1295;51.130;6.732;2024-01-15T05:22:58;21.87;;;12.17;;
2570;SDS011;1295;51.130;6.732;2024-01-15T05:25:23;17.63;;;9.77;;
2570;SDS011;1295;51.130;6.732;2024-01-15T05:27:49;19.73;;;12.63;;
2570;SDS011;1295;51.130;6.732;2024-01-15T05:30:15;9.20;;;8.50;;
2570;SDS011;1295;51.130;6.732;2024-01-15T05:32:41;18.57;;;10.97;;
2570;SDS011;1295;51.130;6.732;2024-01-15T05:35:07;13.68;;;8.82;;
2570;SDS011;1295;51.130;6.732;2024-01-15T05:37:33;18.13;;;11.67;;
2570;SDS011;1295;51.130;6.732;2024-01-15T05:39:59;16.10;;;11.60;;
2570;SDS011;1295;51.130;6.732;2024-01-15T05:42:25;17.73;;;11.63;;
2570;SDS011;1295;51.130;6.732;2024-01-15T05:44:51;16.15;;;7.93;;
2570;SDS011;1295;51.130;6.732;2024-01-15T05:47:16;13.77;;;10.57;;
2570;SDS011;1295;51.130;6.732;2024-01-15T05:49:42;17.13;;;9.90;;
2570;SDS011;1295;51.130;6.732;2024-01-15T05:52:08;13.87;;;11.03;;
2570;SDS011;1295;51.130;6.732;2024-01-15T05:54:33;20.40;;;12.50;;
2570;SDS011;1295;51.130;6.732;2024-01-15T05:56:59;13.70;;;10.83;;
2570;SDS011;1295;51.130;6.732;2024-01-15T05:59:25;14.07;;;10.00;;
2570;SDS011;1295;51.130;6.732;2024-01-15T06:01:51;14.23;;;11.80;;
2570;SDS011;1295;51.130;6.732;2024-01-15T06:04:17;11.73;;;10.50;;
2570;SDS011;1295;51.130;6.732;2024-01-15T06:06:59;16.00;;;11.97;;
2570;SDS011;1295;51.130;6.732;2024-01-15T06:09:24;18.52;;;11.23;;
2570;SDS011;1295;51.130;6.732;2024-01-15T06:11:50;17.67;;;13.83;;
2570;SDS011;1295;51.130;6.732;2024-01-15T06:14:16;22.03;;;13.93;;
2570;SDS011;1295;51.130;6.732;2024-01-15T06:16:41;15.10;;;11.27;;
2570;SDS011;1295;51.130;6.732;2024-01-15T06:19:07;9.97;;;7.70;;
2570;SDS011;1295;51.130;6.732;2024-01-15T06:21:32;10.63;;;9.10;;
2570;SDS011;1295;51.130;6.732;2024-01-15T06:23:58;19.30;;;10.30;;
2570;SDS011;1295;51.130;6.732;2024-01-15T06:26:24;19.87;;;9.63;;
2570;SDS011;1295;51.130;6.732;2024-01-15T06:28:49;12.77;;;8.97;;
2570;SDS011;1295;51.130;6.732;2024-01-15T06:31:15;15.33;;;11.70;;
2570;SDS011;1295;51.130;6.732;2024-01-15T06:33:41;10.57;;;9.57;;
2570;SDS011;1295;51.130;6.732;2024-01-15T06:36:06;10.17;;;9.27;;
2570;SDS011;1295;51.130;6.732;2024-01-15T06:38:32;11.60;;;9.53;;
2570;SDS011;1295;51.130;6.732;2024-01-15T06:40:58;16.43;;;10.90;;
2570;SDS011;1295;51.130;6.732;2024-01-15T06:43:23;19.10;;;10.63;;
2570;SDS011;1295;51.130;6.732;2024-01-15T06:45:50;14.73;;;10.60;;
2570;SDS011;1295;51.130;6.732;2024-01-15T06:48:15;9.65;;;8.75;;
2570;SDS011;1295;51.130;6.732;2024-01-15T06:50:42;11.40;;;10.33;;
2570;SDS011;1295;51.130;6.732;2024-01-15T06:53:08;14.60;;;11.48;;
2570;SDS011;1295;51.130;6.732;2024-01-15T06:55:33;18.30;;;13.07;;
2570;SDS011;1295;51.130;6.732;2024-01-15T06:57:59;13.10;;;10.03;;
2570;SDS011;1295;51.130;6.732;2024-01-15T07:00:25;18.23;;;13.20;;
2570;SDS011;1295;51.130;6.732;2024-01-15T07:02:50;15.80;;;11.47;;
2570;SDS011;1295;51.130;6.732;2024-01-15T07:05:16;28.17;;;14.67;;
2570;SDS011;1295;51.130;6.732;2024-01-15T07:07:41;15.17;;;11.93;;
2570;SDS011;1295;51.130;6.732;2024-01-15T07:10:07;22.30;;;14.90;;
2570;SDS011;1295;51.130;6.732;2024-01-15T07:12:33;20.43;;;13.07;;
2570;SDS011;1295;51.130;6.732;2024-01-15T07:14:59;26.50;;;13.87;;
2570;SDS011;1295;51.130;6.732;2024-01-15T07:17:25;19.98;;;12.75;;
2570;SDS011;1295;51.130;6.732;2024-01-15T07:19:50;18.63;;;16.00;;
2570;SDS011;1295;51.130;6.732;2024-01-15T07:22:17;17.10;;;10.47;;
2570;SDS011;1295;51.130;6.732;2024-01-15T07:24:43;17.27;;;13.17;;
2570;SDS011;1295;51.130;6.732;2024-01-15T07:27:09;17.97;;;12.43;;
2570;SDS011;1295;51.130;6.732;2024-01-15T07:29:35;17.57;;;11.40;;
2570;SDS011;1295;51.130;6.732;2024-01-15T07:32:00;21.53;;;15.40;;
2570;SDS011;1295;51.130;6.732;2024-01-15T07:34:26;13.73;;;12.20;;
2570;SDS011;1295;51.130;6.732;2024-01-15T07:36:52;18.80;;;12.37;;
2570;SDS011;1295;51.130;6.732;2024-01-15T07:39:18;20.65;;;14.50;;
2570;SDS011;1295;51.130;6.732;2024-01-15T07:41:43;17.17;;;12.90;;
2570;SDS011;1295;51.130;6.732;2024-01-15T07:44:09;23.50;;;15.40;;
2570;SDS011;1295;51.130;6.732;2024-01-15T07:46:35;25.63;;;15.63;;
2570;SDS011;1295;51.130;6.732;2024-01-15T07:49:01;20.62;;;14.73;;
2570;SDS011;1295;51.130;6.732;2024-01-15T07:51:26;19.40;;;11.17;;
2570;SDS011;1295;51.130;6.732;2024-01-15T07:53:53;19.93;;;13.07;;
2570;SDS011;1295;51.130;6.732;2024-01-15T07:56:18;26.90;;;14.10;;
2570;SDS011;1295;51.130;6.732;2024-01-15T07:58:50;25.70;;;15.50;;
2570;SDS011;1295;51.130;6.732;2024-01-15T08:01:16;35.97;;;20.27;;
2570;SDS011;1295;51.130;6.732;2024-01-15T08:03:42;22.85;;;13.57;;
2570;SDS011;1295;51.130;6.732;2024-01-15T08:06:08;26.17;;;18.43;;
2570;SDS011;1295;51.130;6.732;2024-01-15T08:08:34;28.50;;;19.07;;
2570;SDS011;1295;51.130;6.732;2024-01-15T08:11:00;24.47;;;18.17;;
2570;SDS011;1295;51.130;6.732;2024-01-15T08:13:26;23.73;;;15.40;;
2570;SDS011;1295;51.130;6.732;2024-01-15T08:15:51;34.07;;;14.27;;
2570;SDS011;1295;51.130;6.732;2024-01-15T08:18:17;27.00;;;18.20;;
2570;SDS011;1295;51.130;6.732;2024-01-15T08:20:43;27.00;;;18.13;;
2570;SDS011;1295;51.130;6.732;2024-01-15T08:23:08;28.07;;;17.03;;
2570;SDS011;1295;51.130;6.732;2024-01-15T08:25:34;24.73;;;19.00;;
2570;SDS011;1295;51.130;6.732;2024-01-15T08:27:59;26.77;;;16.53;;
2570;SDS011;1295;51.130;6.732;2024-01-15T08:30:25;31.57;;;19.10;;
2570;SDS011;1295;51.130;6.732;2024-01-15T08:32:51;30.20;;;18.27;;
2570;SDS011;1295;51.130;6.732;2024-01-15T08:35:16;17.90;;;13.53;;
2570;SDS011;1295;51.130;6.732;2024-01-15T08:37:43;24.25;;;17.85;;
2570;SDS011;1295;51.130;6.732;2024-01-15T08:40:09;26.90;;;16.80;;
2570;SDS011;1295;51.130;6.732;2024-01-15T08:42:35;26.47;;;18.70;;
2570;SDS011;1295;51.130;6.732;2024-01-15T08:45:01;31.07;;;17.23;;
2570;SDS011;1295;51.130;6.732;2024-01-15T08:47:27;19.53;;;12.57;;
2570;SDS011;1295;51.130;6.732;2024-01-15T08:49:52;26.63;;;16.63;;
2570;SDS011;1295;51.130;6.732;2024-01-15T08:52:18;32.90;;;17.93;;
2570;SDS011;1295;51.130;6.732;2024-01-15T08:54:54;26.30;;;16.10;;
2570;SDS011;1295;51.130;6.732;2024-01-15T08:57:19;19.90;;;16.37;;
2570;SDS011;1295;51.130;6.732;2024-01-15T08:59:45;24.17;;;14.63;;
2570;SDS011;1295;51.130;6.732;2024-01-15T09:02:11;24.50;;;14.93;;
2570;SDS011;1295;51.130;6.732;2024-01-15T09:04:37;25.23;;;16.80;;
2570;SDS011;1295;51.130;6.732;2024-01-15T09:07:04;25.20;;;18.60;;
2570;SDS011;1295;51.130;6.732;2024-01-15T09:09:29;22.63;;;15.60;;
2570;SDS011;1295;51.130;6.732;2024-01-15T09:11:55;23.57;;;17.70;;
2570;SDS011;1295;51.130;6.732;2024-01-15T09:14:20;20.97;;;13.90;;
2570;SDS011;1295;51.130;6.732;2024-01-15T09:16:47;26.00;;;19.20;;
2570;SDS011;1295;51.130;6.732;2024-01-15T09:19:12;19.87;;;11.23;;
2570;SDS011;1295;51.130;6.732;2024-01-15T09:21:38;23.73;;;14.53;;
2570;SDS011;1295;51.130;6.732;2024-01-15T09:24:04;22.10;;;15.13;;
2570;SDS011;1295;51.130;6.732;2024-01-15T09:26:30;20.70;;;12.60;;
2570;SDS011;1295;51.130;6.732;2024-01-15T09:28:55;19.67;;;14.30;;
2570;SDS011;1295;51.130;6.732;2024-01-15T09:31:21;17.97;;;10.40;;
2570;SDS011;1295;51.130;6.732;2024-01-15T09:33:47;16.80;;;11.63;;
2570;SDS011;1295;51.130;6.732;2024-01-15T09:36:12;18.57;;;16.23;;
2570;SDS011;1295;51.130;6.732;2024-01-15T09:38:39;13.00;;;11.57;;
2570;SDS011;1295;51.130;6.732;2024-01-15T09:41:03;19.33;;;14.80;;
2570;SDS011;1295;51.130;6.732;2024-01-15T09:43:29;14.13;;;11.90;;
2570;SDS011;1295;51.130;6.732;2024-01-15T09:45:55;14.00;;;10.20;;
2570;SDS011;1295;51.130;6.732;2024-01-15T09:48:20;12.73;;;11.43;;
2570;SDS011;1295;51.130;6.732;2024-01-15T09:50:46;12.63;;;11.27;;
2570;SDS011;1295;51.130;6.732;2024-01-15T09:53:12;13.70;;;10.07;;
2570;SDS011;1295;51.130;6.732;2024-01-15T09:55:37;15.43;;;10.97;;
2570;SDS011;1295;51.130;6.732;2024-01-15T09:58:03;12.20;;;10.93;;
2570;SDS011;1295;51.130;6.732;2024-01-15T10:00:29;12.57;;;8.90;;
2570;SDS011;1295;51.130;6.732;2024-01-15T10:02:54;12.57;;;9.23;;
2570;SDS011;1295;51.130;6.732;2024-01-15T10:05:20;11.80;;;6.43;;
2570;SDS011;1295;51.130;6.732;2024-01-15T10:07:46;10.17;;;9.33;;
2570;SDS011;1295;51.130;6.732;2024-01-15T10:10:12;9.23;;;8.07;;
2570;SDS011;1295;51.130;6.732;2024-01-15T10:12:38;8.03;;;7.20;;
2570;SDS011;1295;51.130;6.732;2024-01-15T10:15:04;8.07;;;7.00;;
2570;SDS011;1295;51.130;6.732;2024-01-15T10:17:31;6.97;;;6.30;;
2570;SDS011;1295;51.130;6.732;2024-01-15T10:19:57;6.10;;;5.70;;
2570;SDS011;1295;51.130;6.732;2024-01-15T10:22:23;5.17;;;4.70;;
2570;SDS011;1295;51.130;6.732;2024-01-15T10:24:48;7.07;;;6.33;;
2570;SDS011;1295;51.130;6.732;2024-01-15T10:27:14;4.90;;;4.60;;
2570;SDS011;1295;51.130;6.732;2024-01-15T10:29:40;6.23;;;5.80;;
2570;SDS011;1295;51.130;6.732;2024-01-15T10:32:06;7.60;;;6.93;;
2570;SDS011;1295;51.130;6.732;2024-01-15T10:34:32;6.43;;;6.03;;
2570;SDS011;1295;51.130;6.732;2024-01-15T10:36:57;6.73;;;6.33;;
2570;SDS011;1295;51.130;6.732;2024-01-15T10:39:23;5.67;;;5.37;;
2570;SDS011;1295;51.130;6.732;2024-01-15T10:41:50;6.60;;;6.20;;
2570;SDS011;1295;51.130;6.732;2024-01-15T10:44:15;7.40;;;6.80;;
2570;SDS011;1295;51.130;6.732;2024-01-15T10:46:41;6.63;;;6.03;;
2570;SDS011;1295;51.130;6.732;2024-01-15T10:49:07;5.00;;;4.80;;
2570;SDS011;1295;51.130;6.732;2024-01-15T10:51:32;6.80;;;6.30;;
2570;SDS011;1295;51.130;6.732;2024-01-15T10:53:59;7.17;;;6.47;;
2570;SDS011;1295;51.130;6.732;2024-01-15T10:56:24;7.47;;;6.63;;
2570;SDS011;1295;51.130;6.732;2024-01-15T10:58:50;6.50;;;5.90;;
2570;SDS011;1295;51.130;6.732;2024-01-15T11:01:15;5.70;;;5.27;;
2570;SDS011;1295;51.130;6.732;2024-01-15T11:03:42;6.10;;;5.70;;
2570;SDS011;1295;51.130;6.732;2024-01-15T11:08:42;5.40;;;5.00;;
2570;SDS011;1295;51.130;6.732;2024-01-15T11:11:07;5.07;;;4.57;;
2570;SDS011;1295;51.130;6.732;2024-01-15T11:13:40;4.67;;;4.47;;
2570;SDS011;1295;51.130;6.732;2024-01-15T11:16:07;5.03;;;4.70;;
2570;SDS011;1295;51.130;6.732;2024-01-15T11:18:35;5.30;;;4.90;;
2570;SDS011;1295;51.130;6.732;2024-01-15T11:21:19;5.20;;;4.80;;
2570;SDS011;1295;51.130;6.732;2024-01-15T11:23:48;3.70;;;3.50;;
2570;SDS011;1295;51.130;6.732;2024-01-15T11:26:32;4.83;;;4.53;;
2570;SDS011;1295;51.130;6.732;2024-01-15T11:31:58;5.10;;;4.68;;
2570;SDS011;1295;51.130;6.732;2024-01-15T11:37:03;3.50;;;3.30;;
2570;SDS011;1295;51.130;6.732;2024-01-15T11:42:10;5.33;;;4.30;;
2570;SDS011;1295;51.130;6.732;2024-01-15T11:44:35;5.03;;;4.80;;
2570;SDS011;1295;51.130;6.732;2024-01-15T11:47:01;3.93;;;3.73;;
2570;SDS011;1295;51.130;6.732;2024-01-15T11:52:15;4.67;;;4.27;;
2570;SDS011;1295;51.130;6.732;2024-01-15T11:54:41;4.12;;;3.78;;
2570;SDS011;1295;51.130;6.732;2024-01-15T11:57:09;3.30;;;3.17;;
2570;SDS011;1295;51.130;6.732;2024-01-15T11:59:34;7.50;;;4.97;;
2570;SDS011;1295;51.130;6.732;2024-01-15T12:02:00;3.50;;;3.40;;
2570;SDS011;1295;51.130;6.732;2024-01-15T12:04:26;6.00;;;4.80;;
2570;SDS011;1295;51.130;6.732;2024-01-15T12:06:52;5.70;;;5.27;;
2570;SDS011;1295;51.130;6.732;2024-01-15T12:09:19;7.37;;;6.97;;
2570;SDS011;1295;51.130;6.732;2024-01-15T12:11:48;8.40;;;7.60;;
2570;SDS011;1295;51.130;6.732;2024-01-15T12:14:11;5.90;;;5.50;;
2570;SDS011;1295;51.130;6.732;2024-01-15T12:16:37;8.70;;;7.53;;
2570;SDS011;1295;51.130;6.732;2024-01-15T12:19:02;5.60;;;3.60;;
2570;SDS011;1295;51.130;6.732;2024-01-15T12:21:28;8.43;;;7.73;;
2570;SDS011;1295;51.130;6.732;2024-01-15T12:23:53;9.60;;;8.63;;
2570;SDS011;1295;51.130;6.732;2024-01-15T12:26:19;10.90;;;8.60;;
2570;SDS011;1295;51.130;6.732;2024-01-15T12:28:45;15.60;;;8.63;;
2570;SDS011;1295;51.130;6.732;2024-01-15T12:31:10;6.83;;;6.23;;
2570;SDS011;1295;51.130;6.732;2024-01-15T12:33:37;8.80;;;8.20;;
2570;SDS011;1295;51.130;6.732;2024-01-15T12:36:03;9.13;;;5.90;;
2570;SDS011;1295;51.130;6.732;2024-01-15T12:38:29;8.60;;;7.80;;
2570;SDS011;1295;51.130;6.732;2024-01-15T12:40:55;10.63;;;6.77;;
2570;SDS011;1295;51.130;6.732;2024-01-15T12:43:20;15.23;;;9.60;;
2570;SDS011;1295;51.130;6.732;2024-01-15T12:45:46;8.33;;;7.63;;
2570;SDS011;1295;51.130;6.732;2024-01-15T12:48:12;8.13;;;5.90;;
2570;SDS011;1295;51.130;6.732;2024-01-15T12:50:38;12.57;;;7.97;;
2570;SDS011;1295;51.130;6.732;2024-01-15T12:53:04;4.83;;;4.67;;
2570;SDS011;1295;51.130;6.732;2024-01-15T12:55:29;8.17;;;6.60;;
2570;SDS011;1295;51.130;6.732;2024-01-15T12:57:55;8.30;;;7.70;;
2570;SDS011;1295;51.130;6.732;2024-01-15T13:00:21;7.83;;;6.63;;
2570;SDS011;1295;51.130;6.732;2024-01-15T13:02:46;7.17;;;6.60;;
2570;SDS011;1295;51.130;6.732;2024-01-15T13:05:13;7.80;;;6.60;;
2570;SDS011;1295;51.130;6.732;2024-01-15T13:07:38;7.73;;;6.23;;
2570;SDS011;1295;51.130;6.732;2024-01-15T13:10:04;7.80;;;7.20;;
2570;SDS011;1295;51.130;6.732;2024-01-15T13:12:30;6.60;;;6.13;;
2570;SDS011;1295;51.130;6.732;2024-01-15T13:14:57;9.53;;;7.17;;
2570;SDS011;1295;51.130;6.732;2024-01-15T13:17:21;12.93;;;7.23;;
2570;SDS011;1295;51.130;6.732;2024-01-15T13:19:47;9.60;;;7.43;;
2570;SDS011;1295;51.130;6.732;2024-01-15T13:22:12;6.50;;;4.63;;
2570;SDS011;1295;51.130;6.732;2024-01-15T13:24:38;6.57;;;6.10;;
2570;SDS011;1295;51.130;6.732;2024-01-15T13:27:04;6.33;;;5.83;;
2570;SDS011;1295;51.130;6.732;2024-01-15T13:29:29;6.40;;;6.03;;
2570;SDS011;1295;51.130;6.732;2024-01-15T13:31:55;5.97;;;5.57;;
2570;SDS011;1295;51.130;6.732;2024-01-15T13:34:21;5.90;;;5.40;;
2570;SDS011;1295;51.130;6.732;2024-01-15T13:36:47;5.90;;;5.37;;
2570;SDS011;1295;51.130;6.732;2024-01-15T13:39:13;7.00;;;5.70;;
2570;SDS011;1295;51.130;6.732;2024-01-15T13:41:38;8.50;;;5.50;;
2570;SDS011;1295;51.130;6.732;2024-01-15T13:44:04;6.80;;;6.03;;
2570;SDS011;1295;51.130;6.732;2024-01-15T13:46:30;6.10;;;5.70;;
2570;SDS011;1295;51.130;6.732;2024-01-15T13:48:55;8.40;;;5.70;;
2570;SDS011;1295;51.130;6.732;2024-01-15T13:51:21;6.50;;;5.40;;
2570;SDS011;1295;51.130;6.732;2024-01-15T13:53:46;4.83;;;4.47;;
2570;SDS011;1295;51.130;6.732;2024-01-15T13:56:12;7.90;;;5.97;;
2570;SDS011;1295;51.130;6.732;2024-01-15T13:58:38;6.23;;;5.80;;
2570;SDS011;1295;51.130;6.732;2024-01-15T14:01:05;4.73;;;4.33;;
2570;SDS011;1295;51.130;6.732;2024-01-15T14:03:30;5.70;;;5.40;;
2570;SDS011;1295;51.130;6.732;2024-01-15T14:05:56;4.77;;;4.47;;
2570;SDS011;1295;51.130;6.732;2024-01-15T14:08:23;9.00;;;4.93;;
2570;SDS011;1295;51.130;6.732;2024-01-15T14:10:48;4.80;;;4.60;;
2570;SDS011;1295;51.130;6.732;2024-01-15T14:13:15;3.87;;;3.67;;
2570;SDS011;1295;51.130;6.732;2024-01-15T14:15:41;4.70;;;4.40;;
2570;SDS011;1295;51.130;6.732;2024-01-15T14:18:06;5.20;;;4.10;;
2570;SDS011;1295;51.130;6.732;2024-01-15T14:20:33;5.43;;;5.03;;
2570;SDS011;1295;51.130;6.732;2024-01-15T14:22:58;4.30;;;4.10;;
2570;SDS011;1295;51.130;6.732;2024-01-15T14:25:24;4.30;;;4.00;;
2570;SDS011;1295;51.130;6.732;2024-01-15T14:27:50;4.70;;;4.47;;
2570;SDS011;1295;51.130;6.732;2024-01-15T14:30:15;4.83;;;4.63;;
2570;SDS011;1295;51.130;6.732;2024-01-15T14:32:41;4.07;;;3.73;;
2570;SDS011;1295;51.130;6.732;2024-01-15T14:35:07;5.60;;;5.20;;
2570;SDS011;1295;51.130;6.732;2024-01-15T14:37:32;4.30;;;4.10;;
2570;SDS011;1295;51.130;6.732;2024-01-15T14:39:58;4.80;;;4.40;;
2570;SDS011;1295;51.130;6.732;2024-01-15T14:42:31;6.20;;;5.67;;
2570;SDS011;1295;51.130;6.732;2024-01-15T14:44:57;4.07;;;3.87;;
2570;SDS011;1295;51.130;6.732;2024-01-15T14:47:23;2.37;;;2.23;;
2570;SDS011;1295;51.130;6.732;2024-01-15T14:49:49;3.77;;;3.57;;
2570;SDS011;1295;51.130;6.732;2024-01-15T14:52:21;4.40;;;4.17;;
2570;SDS011;1295;51.130;6.732;2024-01-15T14:54:46;2.57;;;2.37;;
2570;SDS011;1295;51.130;6.732;2024-01-15T14:57:12;4.47;;;4.17;;
2570;SDS011;1295;51.130;6.732;2024-01-15T14:59:37;2.57;;;2.47;;
2570;SDS011;1295;51.130;6.732;2024-01-15T15:02:03;3.60;;;3.40;;
2570;SDS011;1295;51.130;6.732;2024-01-15T15:04:29;10.63;;;6.60;;